createdAt,value
2023-04-23T07:30:11.848Z,999.7
2023-04-23T07:35:17.183Z,999.6
2023-04-23T07:40:23.924Z,999.5
2023-04-23T07:45:30.198Z,999.5
2023-04-23T07:50:37.084Z,999.4
2023-04-23T07:55:43.277Z,999.3
2023-04-23T08:00:49.989Z,999.3
2023-04-23T08:05:56.372Z,999.3
2023-04-23T08:11:02.957Z,999.3
2023-04-23T08:16:09.336Z,999.3
2023-04-23T08:21:16.015Z,999.3
2023-04-23T08:26:22.392Z,999.2
2023-04-23T08:31:29.170Z,999.2
2023-04-23T08:36:35.416Z,999.1
2023-04-23T08:41:42.080Z,999.1
2023-04-23T08:46:48.459Z,999
2023-04-23T08:51:55.188Z,999.1
2023-04-23T08:57:01.617Z,999.1
2023-04-23T09:02:08.252Z,999.1
2023-04-23T09:07:14.594Z,999.1
2023-04-23T09:12:21.244Z,999
2023-04-23T09:17:27.745Z,999
2023-04-23T09:22:33.082Z,998.9
2023-04-23T09:27:38.554Z,998.8
2023-04-23T09:32:45.084Z,998.7
2023-04-23T09:37:51.465Z,998.7
2023-04-23T09:42:57.830Z,998.7
2023-04-23T09:48:04.241Z,998.6
2023-04-23T09:53:10.568Z,998.5
2023-04-23T09:58:16.939Z,998.6
2023-04-23T10:03:23.358Z,998.5
2023-04-23T10:08:29.769Z,998.4
2023-04-23T10:13:36.179Z,998.4
2023-04-23T10:18:42.737Z,998.3
2023-04-23T10:23:49.162Z,998.3
2023-04-23T10:28:55.769Z,998.2
2023-04-23T10:34:01.167Z,998.2
2023-04-23T10:39:07.497Z,998
2023-04-23T10:44:13.885Z,998.1
2023-04-23T10:49:20.306Z,998
2023-04-23T10:54:26.623Z,997.9
2023-04-23T10:59:33.216Z,997.9
2023-04-23T11:04:39.490Z,997.8
2023-04-23T11:09:44.919Z,997.8
2023-04-23T11:14:50.516Z,997.7
2023-04-23T11:19:56.011Z,997.6
2023-04-23T11:25:01.364Z,997.5
2023-04-23T11:30:07.704Z,997.5
2023-04-23T11:35:14.426Z,997.4
2023-04-23T11:40:20.693Z,997.3
2023-04-23T11:45:27.376Z,997.3
2023-04-23T11:50:33.853Z,997.2
2023-04-23T11:55:40.542Z,997
2023-04-23T12:00:46.985Z,997
2023-04-23T12:05:53.485Z,996.7
2023-04-23T12:10:59.909Z,996.8
2023-04-23T12:16:06.554Z,996.7
2023-04-23T12:21:13.021Z,996.6
2023-04-23T12:26:19.278Z,996.6
2023-04-23T12:31:24.717Z,996.5
2023-04-23T12:36:31.076Z,996.5
2023-04-23T12:41:37.426Z,996.4
2023-04-23T12:46:43.823Z,996.3
2023-04-23T12:51:50.191Z,996.3
2023-04-23T12:56:56.621Z,996.3
2023-04-23T13:02:02.953Z,996.1
2023-04-23T13:07:08.395Z,996
2023-04-23T13:12:13.854Z,996
2023-04-23T13:17:19.188Z,995.9
2023-04-23T13:22:24.576Z,995.7
2023-04-23T13:27:31.352Z,995.7
2023-04-23T13:32:37.610Z,995.6
2023-04-23T13:37:44.281Z,995.5
2023-04-23T13:42:50.652Z,995.4
2023-04-23T13:47:57.330Z,995.2
2023-04-23T13:53:03.810Z,995.2
2023-04-23T13:58:10.548Z,995
2023-04-23T14:03:17.132Z,994.8
2023-04-23T14:08:23.547Z,994.8
2023-04-23T14:13:29.913Z,994.7
2023-04-23T14:18:36.650Z,994.6
2023-04-23T14:23:42.864Z,994.6
2023-04-23T14:28:48.273Z,994.5
2023-04-23T14:33:54.684Z,994.4
2023-04-23T14:39:01.077Z,994.3
2023-04-23T14:44:07.416Z,994.2
2023-04-23T14:49:13.889Z,994.1
2023-04-23T14:54:20.235Z,994.1
2023-04-23T14:59:26.562Z,994
2023-04-23T15:04:32.016Z,993.9
2023-04-23T15:09:37.362Z,994
2023-04-23T15:14:43.718Z,993.9
2023-04-23T15:19:50.524Z,993.9
2023-04-23T15:24:56.778Z,993.9
2023-04-23T15:30:03.424Z,993.8
2023-04-23T15:35:09.822Z,993.9
2023-04-23T15:40:16.473Z,993.9
2023-04-23T15:45:22.848Z,993.8
2023-04-23T15:50:29.596Z,993.8
2023-04-23T15:55:35.902Z,994
2023-04-23T16:00:42.683Z,994.2
2023-04-23T16:05:49.157Z,994.5
2023-04-23T16:10:55.820Z,994.7
2023-04-23T16:16:01.605Z,994.8
2023-04-23T16:21:07.912Z,994.8
2023-04-23T16:26:14.379Z,994.7
2023-04-23T16:31:20.835Z,994.6
2023-04-23T16:36:27.530Z,994.5
2023-04-23T16:41:33.743Z,994.3
2023-04-23T16:46:40.371Z,994.4
2023-04-23T16:51:45.899Z,994.4
2023-04-23T16:56:51.492Z,994.4
2023-04-23T17:01:58.416Z,994.4
2023-04-23T17:07:04.432Z,994.5
2023-04-23T17:12:11.033Z,994.4
2023-04-23T17:17:17.532Z,994.5
2023-04-23T17:22:24.016Z,994.5
2023-04-23T17:27:30.596Z,994.6
2023-04-23T17:32:37.115Z,994.5
2023-04-23T17:37:43.481Z,994.4
2023-04-23T17:42:50.190Z,994.4
2023-04-23T17:47:56.321Z,994.3
2023-04-23T17:53:03.024Z,994.3
2023-04-23T17:58:09.504Z,994.5
2023-04-23T18:03:14.971Z,994.5
2023-04-23T18:08:21.292Z,994.4
2023-04-23T18:13:27.490Z,994.4
